sensor_id;sensor_type;location;lat;lon;timestamp;P1;durP1;ratioP1;P2;durP2;ratioP2
8171;SDS011;4127;47.908;10.850;2023-06-04T00:01:27;6.13;;;5.47;;
8171;SDS011;4127;47.908;10.850;2023-06-04T00:03:54;6.30;;;5.70;;
8171;SDS011;4127;47.908;10.850;2023-06-04T00:06:21;6.37;;;5.77;;
8171;SDS011;4127;47.908;10.850;2023-06-04T00:08:47;5.57;;;4.97;;
8171;SDS011;4127;47.908;10.850;2023-06-04T00:11:14;5.80;;;5.30;;
8171;SDS011;4127;47.908;10.850;2023-06-04T00:13:41;6.13;;;5.53;;
8171;SDS011;4127;47.908;10.850;2023-06-04T00:16:08;6.10;;;5.50;;
8171;SDS011;4127;47.908;10.850;2023-06-04T00:18:35;5.97;;;5.37;;
8171;SDS011;4127;47.908;10.850;2023-06-04T00:21:02;6.23;;;5.63;;
8171;SDS011;4127;47.908;10.850;2023-06-04T00:23:28;5.90;;;5.30;;
8171;SDS011;4127;47.908;10.850;2023-06-04T00:25:55;7.20;;;5.57;;
8171;SDS011;4127;47.908;10.850;2023-06-04T00:28:22;5.77;;;5.27;;
8171;SDS011;4127;47.908;10.850;2023-06-04T00:30:49;6.33;;;5.60;;
8171;SDS011;4127;47.908;10.850;2023-06-04T00:33:15;5.77;;;4.63;;
8171;SDS011;4127;47.908;10.850;2023-06-04T00:35:42;5.87;;;5.33;;
8171;SDS011;4127;47.908;10.850;2023-06-04T00:38:09;6.13;;;5.50;;
8171;SDS011;4127;47.908;10.850;2023-06-04T00:40:36;6.60;;;5.43;;
8171;SDS011;4127;47.908;10.850;2023-06-04T00:43:03;5.70;;;5.20;;
8171;SDS011;4127;47.908;10.850;2023-06-04T00:45:30;5.73;;;5.20;;
8171;SDS011;4127;47.908;10.850;2023-06-04T00:47:58;6.00;;;5.40;;
8171;SDS011;4127;47.908;10.850;2023-06-04T00:50:25;7.60;;;5.90;;
8171;SDS011;4127;47.908;10.850;2023-06-04T00:52:52;5.50;;;5.00;;
8171;SDS011;4127;47.908;10.850;2023-06-04T00:55:20;5.97;;;5.43;;
8171;SDS011;4127;47.908;10.850;2023-06-04T00:57:47;6.30;;;5.70;;
8171;SDS011;4127;47.908;10.850;2023-06-04T01:00:14;6.17;;;5.63;;
8171;SDS011;4127;47.908;10.850;2023-06-04T01:02:41;6.07;;;5.37;;
8171;SDS011;4127;47.908;10.850;2023-06-04T01:08:01;6.37;;;5.23;;
8171;SDS011;4127;47.908;10.850;2023-06-04T01:10:28;4.90;;;4.50;;
8171;SDS011;4127;47.908;10.850;2023-06-04T01:12:55;5.93;;;5.33;;
8171;SDS011;4127;47.908;10.850;2023-06-04T01:15:22;5.80;;;5.30;;
8171;SDS011;4127;47.908;10.850;2023-06-04T01:17:49;5.90;;;5.30;;
8171;SDS011;4127;47.908;10.850;2023-06-04T01:20:25;5.87;;;5.10;;
8171;SDS011;4127;47.908;10.850;2023-06-04T01:25:35;4.73;;;4.33;;
8171;SDS011;4127;47.908;10.850;2023-06-04T01:28:08;5.80;;;5.30;;
8171;SDS011;4127;47.908;10.850;2023-06-04T01:30:39;7.73;;;5.40;;
8171;SDS011;4127;47.908;10.850;2023-06-04T01:33:16;6.20;;;5.60;;
8171;SDS011;4127;47.908;10.850;2023-06-04T01:35:44;7.50;;;5.80;;
8171;SDS011;4127;47.908;10.850;2023-06-04T01:38:11;6.50;;;5.47;;
8171;SDS011;4127;47.908;10.850;2023-06-04T01:40:38;6.33;;;5.37;;
8171;SDS011;4127;47.908;10.850;2023-06-04T01:43:05;5.83;;;5.27;;
8171;SDS011;4127;47.908;10.850;2023-06-04T01:45:32;6.20;;;5.60;;
8171;SDS011;4127;47.908;10.850;2023-06-04T01:48:01;6.80;;;5.47;;
8171;SDS011;4127;47.908;10.850;2023-06-04T01:50:29;5.80;;;5.20;;
8171;SDS011;4127;47.908;10.850;2023-06-04T01:52:56;6.70;;;5.53;;
8171;SDS011;4127;47.908;10.850;2023-06-04T01:55:24;6.23;;;5.73;;
8171;SDS011;4127;47.908;10.850;2023-06-04T01:57:51;5.97;;;5.37;;
8171;SDS011;4127;47.908;10.850;2023-06-04T02:00:18;6.07;;;5.47;;
8171;SDS011;4127;47.908;10.850;2023-06-04T02:02:45;6.50;;;5.60;;
8171;SDS011;4127;47.908;10.850;2023-06-04T02:05:14;5.90;;;5.40;;
8171;SDS011;4127;47.908;10.850;2023-06-04T02:07:42;5.80;;;5.30;;
8171;SDS011;4127;47.908;10.850;2023-06-04T02:12:39;7.13;;;5.87;;
8171;SDS011;4127;47.908;10.850;2023-06-04T02:15:09;6.53;;;5.93;;
8171;SDS011;4127;47.908;10.850;2023-06-04T02:17:36;6.53;;;5.80;;
8171;SDS011;4127;47.908;10.850;2023-06-04T02:20:06;5.90;;;5.33;;
8171;SDS011;4127;47.908;10.850;2023-06-04T02:22:36;5.97;;;5.37;;
8171;SDS011;4127;47.908;10.850;2023-06-04T02:25:04;6.93;;;5.30;;
8171;SDS011;4127;47.908;10.850;2023-06-04T02:27:31;6.10;;;5.23;;
8171;SDS011;4127;47.908;10.850;2023-06-04T02:29:58;6.33;;;5.73;;
8171;SDS011;4127;47.908;10.850;2023-06-04T02:32:25;7.83;;;5.57;;
8171;SDS011;4127;47.908;10.850;2023-06-04T02:34:52;6.73;;;5.60;;
8171;SDS011;4127;47.908;10.850;2023-06-04T02:37:18;6.10;;;5.10;;
8171;SDS011;4127;47.908;10.850;2023-06-04T02:39:45;5.93;;;5.43;;
8171;SDS011;4127;47.908;10.850;2023-06-04T02:42:12;6.23;;;5.67;;
8171;SDS011;4127;47.908;10.850;2023-06-04T02:44:39;7.07;;;5.80;;
8171;SDS011;4127;47.908;10.850;2023-06-04T02:47:06;6.17;;;5.57;;
8171;SDS011;4127;47.908;10.850;2023-06-04T02:49:33;6.67;;;5.97;;
8171;SDS011;4127;47.908;10.850;2023-06-04T02:51:59;6.13;;;5.53;;
8171;SDS011;4127;47.908;10.850;2023-06-04T02:54:26;6.67;;;6.00;;
8171;SDS011;4127;47.908;10.850;2023-06-04T02:56:53;6.13;;;5.10;;
8171;SDS011;4127;47.908;10.850;2023-06-04T02:59:20;6.37;;;5.77;;
8171;SDS011;4127;47.908;10.850;2023-06-04T03:01:47;5.90;;;5.30;;
8171;SDS011;4127;47.908;10.850;2023-06-04T03:04:15;7.10;;;6.07;;
8171;SDS011;4127;47.908;10.850;2023-06-04T03:06:42;6.00;;;5.43;;
8171;SDS011;4127;47.908;10.850;2023-06-04T03:09:12;6.70;;;5.17;;
8171;SDS011;4127;47.908;10.850;2023-06-04T03:11:39;6.60;;;6.00;;
8171;SDS011;4127;47.908;10.850;2023-06-04T03:14:06;6.00;;;5.40;;
8171;SDS011;4127;47.908;10.850;2023-06-04T03:16:33;6.67;;;6.07;;
8171;SDS011;4127;47.908;10.850;2023-06-04T03:19:00;6.37;;;5.73;;
8171;SDS011;4127;47.908;10.850;2023-06-04T03:21:27;6.63;;;5.93;;
8171;SDS011;4127;47.908;10.850;2023-06-04T03:23:55;6.50;;;5.33;;
8171;SDS011;4127;47.908;10.850;2023-06-04T03:26:22;7.93;;;6.17;;
8171;SDS011;4127;47.908;10.850;2023-06-04T03:28:49;6.60;;;5.97;;
8171;SDS011;4127;47.908;10.850;2023-06-04T03:31:16;6.60;;;5.23;;
8171;SDS011;4127;47.908;10.850;2023-06-04T03:33:43;5.93;;;5.37;;
8171;SDS011;4127;47.908;10.850;2023-06-04T03:36:10;6.53;;;5.77;;
8171;SDS011;4127;47.908;10.850;2023-06-04T03:38:37;5.73;;;5.23;;
8171;SDS011;4127;47.908;10.850;2023-06-04T03:41:03;6.10;;;5.50;;
8171;SDS011;4127;47.908;10.850;2023-06-04T03:43:31;6.07;;;5.47;;
8171;SDS011;4127;47.908;10.850;2023-06-04T03:45:58;6.43;;;5.83;;
8171;SDS011;4127;47.908;10.850;2023-06-04T03:48:24;8.27;;;5.87;;
8171;SDS011;4127;47.908;10.850;2023-06-04T03:50:51;5.33;;;4.87;;
8171;SDS011;4127;47.908;10.850;2023-06-04T03:53:18;5.53;;;5.03;;
8171;SDS011;4127;47.908;10.850;2023-06-04T03:55:45;6.93;;;6.30;;
8171;SDS011;4127;47.908;10.850;2023-06-04T03:58:12;5.33;;;4.73;;
8171;SDS011;4127;47.908;10.850;2023-06-04T04:00:40;6.03;;;5.43;;
8171;SDS011;4127;47.908;10.850;2023-06-04T04:03:07;5.97;;;5.37;;
8171;SDS011;4127;47.908;10.850;2023-06-04T04:05:36;5.90;;;5.33;;
8171;SDS011;4127;47.908;10.850;2023-06-04T04:08:03;5.90;;;5.40;;
8171;SDS011;4127;47.908;10.850;2023-06-04T04:10:30;6.17;;;5.57;;
8171;SDS011;4127;47.908;10.850;2023-06-04T04:12:57;5.93;;;5.37;;
8171;SDS011;4127;47.908;10.850;2023-06-04T04:15:24;5.57;;;5.07;;
8171;SDS011;4127;47.908;10.850;2023-06-04T04:17:51;5.67;;;5.07;;
8171;SDS011;4127;47.908;10.850;2023-06-04T04:20:19;5.10;;;4.60;;
8171;SDS011;4127;47.908;10.850;2023-06-04T04:22:47;5.63;;;5.07;;
8171;SDS011;4127;47.908;10.850;2023-06-04T04:25:16;5.83;;;5.23;;
8171;SDS011;4127;47.908;10.850;2023-06-04T04:27:43;6.73;;;5.53;;
8171;SDS011;4127;47.908;10.850;2023-06-04T04:30:11;5.67;;;5.17;;
8171;SDS011;4127;47.908;10.850;2023-06-04T08:43:32;4.70;;;3.90;;
8171;SDS011;4127;47.908;10.850;2023-06-04T08:46:00;6.20;;;4.30;;
8171;SDS011;4127;47.908;10.850;2023-06-04T08:48:31;5.27;;;4.60;;
8171;SDS011;4127;47.908;10.850;2023-06-04T08:50:59;6.63;;;4.37;;
8171;SDS011;4127;47.908;10.850;2023-06-04T08:53:29;4.30;;;3.90;;
8171;SDS011;4127;47.908;10.850;2023-06-04T08:55:57;5.37;;;4.00;;
8171;SDS011;4127;47.908;10.850;2023-06-04T08:58:25;4.50;;;3.83;;
8171;SDS011;4127;47.908;10.850;2023-06-04T09:00:54;5.07;;;4.30;;
8171;SDS011;4127;47.908;10.850;2023-06-04T09:03:21;4.70;;;4.30;;
8171;SDS011;4127;47.908;10.850;2023-06-04T09:05:48;5.53;;;4.23;;
8171;SDS011;4127;47.908;10.850;2023-06-04T09:08:17;4.67;;;4.00;;
8171;SDS011;4127;47.908;10.850;2023-06-04T09:10:46;4.83;;;4.13;;
8171;SDS011;4127;47.908;10.850;2023-06-04T09:13:18;7.47;;;4.20;;
8171;SDS011;4127;47.908;10.850;2023-06-04T09:18:54;5.20;;;4.10;;
8171;SDS011;4127;47.908;10.850;2023-06-04T09:21:22;5.07;;;4.63;;
8171;SDS011;4127;47.908;10.850;2023-06-04T09:23:49;4.73;;;4.07;;
8171;SDS011;4127;47.908;10.850;2023-06-04T09:26:16;6.80;;;4.27;;
8171;SDS011;4127;47.908;10.850;2023-06-04T09:28:45;4.53;;;4.13;;
8171;SDS011;4127;47.908;10.850;2023-06-04T09:31:15;6.87;;;4.47;;
8171;SDS011;4127;47.908;10.850;2023-06-04T09:33:43;5.07;;;4.27;;
8171;SDS011;4127;47.908;10.850;2023-06-04T09:36:17;4.30;;;3.90;;
8171;SDS011;4127;47.908;10.850;2023-06-04T09:38:45;4.40;;;4.00;;
8171;SDS011;4127;47.908;10.850;2023-06-04T09:41:13;4.72;;;3.72;;
8171;SDS011;4127;47.908;10.850;2023-06-04T09:43:41;5.10;;;3.95;;
8171;SDS011;4127;47.908;10.850;2023-06-04T09:48:37;6.10;;;4.17;;
8171;SDS011;4127;47.908;10.850;2023-06-04T09:51:08;5.37;;;3.90;;
8171;SDS011;4127;47.908;10.850;2023-06-04T09:53:41;5.07;;;4.37;;
8171;SDS011;4127;47.908;10.850;2023-06-04T09:56:08;4.97;;;3.97;;
8171;SDS011;4127;47.908;10.850;2023-06-04T09:58:38;5.77;;;4.03;;
8171;SDS011;4127;47.908;10.850;2023-06-04T10:01:09;4.40;;;4.00;;
8171;SDS011;4127;47.908;10.850;2023-06-04T10:03:38;4.90;;;4.15;;
8171;SDS011;4127;47.908;10.850;2023-06-04T10:06:08;4.10;;;3.70;;
8171;SDS011;4127;47.908;10.850;2023-06-04T10:08:36;4.32;;;3.92;;
8171;SDS011;4127;47.908;10.850;2023-06-04T10:11:07;4.20;;;3.87;;
8171;SDS011;4127;47.908;10.850;2023-06-04T10:13:56;6.03;;;3.88;;
8171;SDS011;4127;47.908;10.850;2023-06-04T10:16:28;5.10;;;4.30;;
8171;SDS011;4127;47.908;10.850;2023-06-04T10:19:00;4.43;;;4.00;;
8171;SDS011;4127;47.908;10.850;2023-06-04T10:21:27;4.50;;;4.10;;
8171;SDS011;4127;47.908;10.850;2023-06-04T10:24:00;4.25;;;3.85;;
8171;SDS011;4127;47.908;10.850;2023-06-04T10:26:28;3.95;;;3.55;;
8171;SDS011;4127;47.908;10.850;2023-06-04T10:28:56;4.97;;;3.85;;
8171;SDS011;4127;47.908;10.850;2023-06-04T10:31:24;4.57;;;4.03;;
8171;SDS011;4127;47.908;10.850;2023-06-04T10:33:54;4.35;;;3.67;;
8171;SDS011;4127;47.908;10.850;2023-06-04T10:36:22;5.07;;;3.60;;
8171;SDS011;4127;47.908;10.850;2023-06-04T10:38:54;4.35;;;3.95;;
8171;SDS011;4127;47.908;10.850;2023-06-04T10:41:22;5.85;;;4.25;;
8171;SDS011;4127;47.908;10.850;2023-06-04T10:43:50;4.90;;;3.80;;
8171;SDS011;4127;47.908;10.850;2023-06-04T10:46:18;4.20;;;3.80;;
8171;SDS011;4127;47.908;10.850;2023-06-04T10:48:50;4.70;;;3.90;;
8171;SDS011;4127;47.908;10.850;2023-06-04T10:51:31;4.30;;;3.80;;
8171;SDS011;4127;47.908;10.850;2023-06-04T10:53:59;4.43;;;3.97;;
8171;SDS011;4127;47.908;10.850;2023-06-04T10:56:28;4.53;;;4.03;;
8171;SDS011;4127;47.908;10.850;2023-06-04T10:58:59;4.35;;;3.88;;
8171;SDS011;4127;47.908;10.850;2023-06-04T11:01:26;4.95;;;3.67;;
8171;SDS011;4127;47.908;10.850;2023-06-04T11:03:55;4.03;;;3.63;;
8171;SDS011;4127;47.908;10.850;2023-06-04T11:06:22;4.47;;;4.07;;
8171;SDS011;4127;47.908;10.850;2023-06-04T11:09:05;4.70;;;3.83;;
8171;SDS011;4127;47.908;10.850;2023-06-04T11:11:32;4.32;;;3.92;;
8171;SDS011;4127;47.908;10.850;2023-06-04T11:14:09;4.60;;;4.13;;
8171;SDS011;4127;47.908;10.850;2023-06-04T11:16:36;4.40;;;4.00;;
8171;SDS011;4127;47.908;10.850;2023-06-04T11:19:03;4.18;;;3.78;;
8171;SDS011;4127;47.908;10.850;2023-06-04T11:21:33;4.57;;;4.10;;
8171;SDS011;4127;47.908;10.850;2023-06-04T11:24:00;4.57;;;4.18;;
8171;SDS011;4127;47.908;10.850;2023-06-04T11:28:58;4.10;;;3.80;;
8171;SDS011;4127;47.908;10.850;2023-06-04T11:31:26;5.50;;;3.65;;
8171;SDS011;4127;47.908;10.850;2023-06-04T11:33:53;3.47;;;3.17;;
8171;SDS011;4127;47.908;10.850;2023-06-04T11:36:23;4.00;;;3.65;;
8171;SDS011;4127;47.908;10.850;2023-06-04T11:38:58;4.32;;;3.80;;
8171;SDS011;4127;47.908;10.850;2023-06-04T11:41:31;4.65;;;3.80;;
8171;SDS011;4127;47.908;10.850;2023-06-04T11:44:04;4.20;;;3.80;;
8171;SDS011;4127;47.908;10.850;2023-06-04T11:46:39;5.28;;;3.60;;
8171;SDS011;4127;47.908;10.850;2023-06-04T11:49:07;4.20;;;3.63;;
8171;SDS011;4127;47.908;10.850;2023-06-04T11:51:34;4.38;;;3.97;;
8171;SDS011;4127;47.908;10.850;2023-06-04T11:54:01;4.30;;;3.90;;
8171;SDS011;4127;47.908;10.850;2023-06-04T11:56:28;4.18;;;3.40;;
8171;SDS011;4127;47.908;10.850;2023-06-04T11:58:55;4.50;;;3.78;;
8171;SDS011;4127;47.908;10.850;2023-06-04T12:01:22;5.25;;;3.75;;
8171;SDS011;4127;47.908;10.850;2023-06-04T12:03:54;7.22;;;3.72;;
8171;SDS011;4127;47.908;10.850;2023-06-04T12:06:21;4.65;;;3.92;;
8171;SDS011;4127;47.908;10.850;2023-06-04T12:08:51;5.63;;;3.70;;
8171;SDS011;4127;47.908;10.850;2023-06-04T12:11:29;3.92;;;3.60;;
8171;SDS011;4127;47.908;10.850;2023-06-04T12:13:58;5.93;;;3.92;;
8171;SDS011;4127;47.908;10.850;2023-06-04T12:16:26;3.95;;;3.53;;
8171;SDS011;4127;47.908;10.850;2023-06-04T12:19:04;4.47;;;3.70;;
8171;SDS011;4127;47.908;10.850;2023-06-04T12:21:32;5.10;;;3.88;;
8171;SDS011;4127;47.908;10.850;2023-06-04T12:24:06;4.43;;;3.70;;
8171;SDS011;4127;47.908;10.850;2023-06-04T12:26:34;4.82;;;3.78;;
8171;SDS011;4127;47.908;10.850;2023-06-04T12:29:08;4.90;;;3.85;;
8171;SDS011;4127;47.908;10.850;2023-06-04T12:31:42;4.40;;;3.72;;
8171;SDS011;4127;47.908;10.850;2023-06-04T12:34:14;3.45;;;3.15;;
8171;SDS011;4127;47.908;10.850;2023-06-04T12:36:43;4.68;;;4.13;;
8171;SDS011;4127;47.908;10.850;2023-06-04T12:39:10;4.32;;;3.92;;
8171;SDS011;4127;47.908;10.850;2023-06-04T12:41:37;3.85;;;3.53;;
8171;SDS011;4127;47.908;10.850;2023-06-04T12:44:04;4.20;;;3.78;;
8171;SDS011;4127;47.908;10.850;2023-06-04T12:46:31;4.72;;;4.32;;
8171;SDS011;4127;47.908;10.850;2023-06-04T12:48:57;4.10;;;3.70;;
8171;SDS011;4127;47.908;10.850;2023-06-04T12:51:24;3.90;;;3.50;;
8171;SDS011;4127;47.908;10.850;2023-06-04T12:53:51;5.95;;;3.88;;
8171;SDS011;4127;47.908;10.850;2023-06-04T12:56:19;3.92;;;3.53;;
8171;SDS011;4127;47.908;10.850;2023-06-04T12:58:45;4.88;;;3.67;;
8171;SDS011;4127;47.908;10.850;2023-06-04T13:01:12;5.50;;;3.92;;
8171;SDS011;4127;47.908;10.850;2023-06-04T13:03:39;4.35;;;3.72;;
8171;SDS011;4127;47.908;10.850;2023-06-04T13:06:07;5.25;;;4.25;;
8171;SDS011;4127;47.908;10.850;2023-06-04T13:08:34;3.70;;;3.40;;
8171;SDS011;4127;47.908;10.850;2023-06-04T13:11:02;4.20;;;3.70;;
8171;SDS011;4127;47.908;10.850;2023-06-04T13:13:29;4.45;;;4.05;;
8171;SDS011;4127;47.908;10.850;2023-06-04T13:15:56;4.90;;;4.40;;
8171;SDS011;4127;47.908;10.850;2023-06-04T13:18:23;4.47;;;3.25;;
8171;SDS011;4127;47.908;10.850;2023-06-04T13:20:50;3.92;;;3.53;;
8171;SDS011;4127;47.908;10.850;2023-06-04T13:23:17;4.28;;;3.45;;
8171;SDS011;4127;47.908;10.850;2023-06-04T13:25:44;4.10;;;3.70;;
8171;SDS011;4127;47.908;10.850;2023-06-04T13:28:11;4.40;;;4.00;;
8171;SDS011;4127;47.908;10.850;2023-06-04T13:30:38;4.72;;;3.58;;
8171;SDS011;4127;47.908;10.850;2023-06-04T13:33:05;4.40;;;3.97;;
8171;SDS011;4127;47.908;10.850;2023-06-04T13:35:32;3.92;;;3.60;;
8171;SDS011;4127;47.908;10.850;2023-06-04T13:37:59;5.15;;;3.75;;
8171;SDS011;4127;47.908;10.850;2023-06-04T13:40:26;4.47;;;3.85;;
8171;SDS011;4127;47.908;10.850;2023-06-04T13:42:53;4.72;;;3.72;;
8171;SDS011;4127;47.908;10.850;2023-06-04T13:45:20;4.00;;;3.60;;
8171;SDS011;4127;47.908;10.850;2023-06-04T13:47:47;3.65;;;3.35;;
8171;SDS011;4127;47.908;10.850;2023-06-04T13:50:14;4.15;;;3.65;;
8171;SDS011;4127;47.908;10.850;2023-06-04T13:52:41;4.40;;;3.58;;
8171;SDS011;4127;47.908;10.850;2023-06-04T13:55:08;4.57;;;4.05;;
8171;SDS011;4127;47.908;10.850;2023-06-04T13:57:35;4.93;;;3.85;;
8171;SDS011;4127;47.908;10.850;2023-06-04T14:00:02;3.92;;;3.53;;
8171;SDS011;4127;47.908;10.850;2023-06-04T14:02:30;4.30;;;3.90;;
8171;SDS011;4127;47.908;10.850;2023-06-04T14:04:57;4.63;;;4.05;;
8171;SDS011;4127;47.908;10.850;2023-06-04T14:07:24;6.07;;;3.58;;
8171;SDS011;4127;47.908;10.850;2023-06-04T14:09:51;4.25;;;3.85;;
8171;SDS011;4127;47.908;10.850;2023-06-04T14:12:21;4.70;;;3.50;;
8171;SDS011;4127;47.908;10.850;2023-06-04T14:14:49;4.60;;;3.75;;
8171;SDS011;4127;47.908;10.850;2023-06-04T14:17:16;4.25;;;3.58;;
8171;SDS011;4127;47.908;10.850;2023-06-04T14:19:43;7.03;;;3.95;;
8171;SDS011;4127;47.908;10.850;2023-06-04T14:22:10;3.80;;;3.50;;
8171;SDS011;4127;47.908;10.850;2023-06-04T14:24:40;4.78;;;3.83;;
8171;SDS011;4127;47.908;10.850;2023-06-04T14:27:08;3.63;;;3.33;;
8171;SDS011;4127;47.908;10.850;2023-06-04T14:29:35;4.43;;;4.00;;
8171;SDS011;4127;47.908;10.850;2023-06-04T14:32:06;4.05;;;3.70;;
8171;SDS011;4127;47.908;10.850;2023-06-04T14:34:33;5.25;;;3.70;;
8171;SDS011;4127;47.908;10.850;2023-06-04T14:37:00;4.57;;;4.03;;
8171;SDS011;4127;47.908;10.850;2023-06-04T14:39:27;5.68;;;4.10;;
8171;SDS011;4127;47.908;10.850;2023-06-04T14:41:54;4.47;;;4.07;;
8171;SDS011;4127;47.908;10.850;2023-06-04T14:44:21;3.97;;;3.50;;
8171;SDS011;4127;47.908;10.850;2023-06-04T14:46:48;5.20;;;3.90;;
8171;SDS011;4127;47.908;10.850;2023-06-04T14:49:17;3.72;;;3.42;;
8171;SDS011;4127;47.908;10.850;2023-06-04T14:51:44;4.47;;;3.95;;
8171;SDS011;4127;47.908;10.850;2023-06-04T14:54:11;6.80;;;4.40;;
8171;SDS011;4127;47.908;10.850;2023-06-04T14:56:38;5.50;;;4.30;;
8171;SDS011;4127;47.908;10.850;2023-06-04T14:59:05;4.10;;;3.55;;
8171;SDS011;4127;47.908;10.850;2023-06-04T15:01:35;4.20;;;3.80;;
8171;SDS011;4127;47.908;10.850;2023-06-04T15:04:03;4.20;;;3.80;;
8171;SDS011;4127;47.908;10.850;2023-06-04T15:06:30;4.57;;;4.05;;
8171;SDS011;4127;47.908;10.850;2023-06-04T15:08:57;5.70;;;3.67;;
8171;SDS011;4127;47.908;10.850;2023-06-04T15:11:24;3.80;;;3.40;;
8171;SDS011;4127;47.908;10.850;2023-06-04T15:13:54;4.03;;;3.38;;
8171;SDS011;4127;47.908;10.850;2023-06-04T15:16:21;4.00;;;3.70;;
8171;SDS011;4127;47.908;10.850;2023-06-04T15:18:49;3.85;;;3.42;;
8171;SDS011;4127;47.908;10.850;2023-06-04T15:21:16;4.82;;;3.50;;
8171;SDS011;4127;47.908;10.850;2023-06-04T15:23:43;3.78;;;3.47;;
8171;SDS011;4127;47.908;10.850;2023-06-04T15:26:15;5.80;;;4.18;;
8171;SDS011;4127;47.908;10.850;2023-06-04T15:28:43;5.00;;;4.50;;
8171;SDS011;4127;47.908;10.850;2023-06-04T15:31:13;4.82;;;3.88;;
8171;SDS011;4127;47.908;10.850;2023-06-04T15:33:40;4.05;;;3.75;;
8171;SDS011;4127;47.908;10.850;2023-06-04T15:36:06;4.25;;;3.60;;
8171;SDS011;4127;47.908;10.850;2023-06-04T15:38:33;4.38;;;3.60;;
8171;SDS011;4127;47.908;10.850;2023-06-04T15:41:00;3.75;;;3.45;;
8171;SDS011;4127;47.908;10.850;2023-06-04T15:43:27;3.92;;;3.58;;
8171;SDS011;4127;47.908;10.850;2023-06-04T15:45:53;4.15;;;3.70;;
8171;SDS011;4127;47.908;10.850;2023-06-04T15:48:21;4.43;;;3.70;;
8171;SDS011;4127;47.908;10.850;2023-06-04T15:50:47;5.10;;;3.45;;
8171;SDS011;4127;47.908;10.850;2023-06-04T15:53:14;4.60;;;3.58;;
8171;SDS011;4127;47.908;10.850;2023-06-04T15:55:41;4.30;;;3.90;;
8171;SDS011;4127;47.908;10.850;2023-06-04T15:58:08;3.85;;;3.55;;
8171;SDS011;4127;47.908;10.850;2023-06-04T16:00:35;3.35;;;3.05;;
8171;SDS011;4127;47.908;10.850;2023-06-04T16:03:02;4.13;;;3.65;;
8171;SDS011;4127;47.908;10.850;2023-06-04T16:05:29;4.43;;;3.65;;
8171;SDS011;4127;47.908;10.850;2023-06-04T16:07:56;3.80;;;3.50;;
8171;SDS011;4127;47.908;10.850;2023-06-04T16:10:23;4.05;;;3.65;;
8171;SDS011;4127;47.908;10.850;2023-06-04T16:12:50;4.93;;;3.63;;
8171;SDS011;4127;47.908;10.850;2023-06-04T16:15:17;3.97;;;3.42;;
8171;SDS011;4127;47.908;10.850;2023-06-04T16:17:43;3.40;;;3.13;;
8171;SDS011;4127;47.908;10.850;2023-06-04T16:20:16;5.10;;;3.42;;
8171;SDS011;4127;47.908;10.850;2023-06-04T16:22:43;3.67;;;3.38;;
8171;SDS011;4127;47.908;10.850;2023-06-04T16:25:10;5.20;;;3.80;;
8171;SDS011;4127;47.908;10.850;2023-06-04T16:27:37;4.45;;;4.05;;
8171;SDS011;4127;47.908;10.850;2023-06-04T16:30:04;6.13;;;3.78;;
8171;SDS011;4127;47.908;10.850;2023-06-04T16:32:31;4.10;;;3.53;;
8171;SDS011;4127;47.908;10.850;2023-06-04T16:34:58;3.70;;;3.40;;
8171;SDS011;4127;47.908;10.850;2023-06-04T16:37:29;4.27;;;3.80;;
8171;SDS011;4127;47.908;10.850;2023-06-04T16:39:56;4.60;;;3.60;;
8171;SDS011;4127;47.908;10.850;2023-06-04T16:42:22;5.33;;;3.80;;
8171;SDS011;4127;47.908;10.850;2023-06-04T16:44:50;3.87;;;3.47;;
8171;SDS011;4127;47.908;10.850;2023-06-04T16:47:17;5.03;;;3.60;;
8171;SDS011;4127;47.908;10.850;2023-06-04T16:49:44;4.07;;;3.40;;
8171;SDS011;4127;47.908;10.850;2023-06-04T16:52:12;4.23;;;3.77;;
8171;SDS011;4127;47.908;10.850;2023-06-04T16:54:38;4.20;;;3.50;;
8171;SDS011;4127;47.908;10.850;2023-06-04T16:57:06;5.10;;;4.07;;
8171;SDS011;4127;47.908;10.850;2023-06-04T16:59:33;6.43;;;4.00;;
8171;SDS011;4127;47.908;10.850;2023-06-04T17:01:59;4.00;;;3.60;;
8171;SDS011;4127;47.908;10.850;2023-06-04T17:04:26;3.70;;;3.30;;
8171;SDS011;4127;47.908;10.850;2023-06-04T17:06:53;5.23;;;3.50;;
8171;SDS011;4127;47.908;10.850;2023-06-04T17:09:22;4.33;;;3.87;;
8171;SDS011;4127;47.908;10.850;2023-06-04T17:11:49;4.77;;;3.60;;
8171;SDS011;4127;47.908;10.850;2023-06-04T17:14:15;4.03;;;3.70;;
8171;SDS011;4127;47.908;10.850;2023-06-04T17:16:42;4.07;;;3.50;;
8171;SDS011;4127;47.908;10.850;2023-06-04T17:19:09;3.90;;;3.57;;
8171;SDS011;4127;47.908;10.850;2023-06-04T17:21:36;8.67;;;3.63;;
8171;SDS011;4127;47.908;10.850;2023-06-04T17:24:04;5.13;;;3.73;;
8171;SDS011;4127;47.908;10.850;2023-06-04T17:26:31;4.00;;;3.60;;
8171;SDS011;4127;47.908;10.850;2023-06-04T17:28:58;3.60;;;3.30;;
8171;SDS011;4127;47.908;10.850;2023-06-04T17:31:25;4.10;;;3.70;;
8171;SDS011;4127;47.908;10.850;2023-06-04T17:33:52;4.27;;;3.47;;
8171;SDS011;4127;47.908;10.850;2023-06-04T17:36:19;4.10;;;3.70;;
8171;SDS011;4127;47.908;10.850;2023-06-04T17:38:47;4.03;;;3.30;;
8171;SDS011;4127;47.908;10.850;2023-06-04T17:41:14;3.87;;;3.27;;
8171;SDS011;4127;47.908;10.850;2023-06-04T17:43:42;3.67;;;3.30;;
8171;SDS011;4127;47.908;10.850;2023-06-04T17:46:09;3.87;;;3.40;;
8171;SDS011;4127;47.908;10.850;2023-06-04T17:48:36;3.47;;;3.17;;
8171;SDS011;4127;47.908;10.850;2023-06-04T17:51:03;3.50;;;3.20;;
8171;SDS011;4127;47.908;10.850;2023-06-04T17:53:31;3.93;;;3.53;;
8171;SDS011;4127;47.908;10.850;2023-06-04T17:55:58;3.77;;;3.33;;
8171;SDS011;4127;47.908;10.850;2023-06-04T17:58:25;4.27;;;3.30;;
8171;SDS011;4127;47.908;10.850;2023-06-04T18:00:52;4.93;;;3.00;;
8171;SDS011;4127;47.908;10.850;2023-06-04T18:03:19;3.90;;;3.50;;
8171;SDS011;4127;47.908;10.850;2023-06-04T18:05:45;4.70;;;3.30;;
8171;SDS011;4127;47.908;10.850;2023-06-04T18:08:13;5.10;;;3.37;;
8171;SDS011;4127;47.908;10.850;2023-06-04T18:10:40;4.07;;;3.17;;
8171;SDS011;4127;47.908;10.850;2023-06-04T18:13:08;5.23;;;3.57;;
8171;SDS011;4127;47.908;10.850;2023-06-04T18:15:35;4.70;;;3.30;;
8171;SDS011;4127;47.908;10.850;2023-06-04T18:18:02;3.80;;;3.10;;
8171;SDS011;4127;47.908;10.850;2023-06-04T18:20:29;3.70;;;3.20;;
8171;SDS011;4127;47.908;10.850;2023-06-04T18:22:56;4.23;;;3.13;;
8171;SDS011;4127;47.908;10.850;2023-06-04T18:25:23;4.53;;;3.23;;
8171;SDS011;4127;47.908;10.850;2023-06-04T18:27:51;4.40;;;3.20;;
8171;SDS011;4127;47.908;10.850;2023-06-04T18:30:18;5.83;;;3.60;;
8171;SDS011;4127;47.908;10.850;2023-06-04T18:32:45;3.77;;;3.40;;
8171;SDS011;4127;47.908;10.850;2023-06-04T18:35:14;3.57;;;3.20;;
8171;SDS011;4127;47.908;10.850;2023-06-04T18:37:41;3.70;;;3.40;;
8171;SDS011;4127;47.908;10.850;2023-06-04T18:40:09;4.07;;;3.43;;
8171;SDS011;4127;47.908;10.850;2023-06-04T18:42:38;4.20;;;3.77;;
8171;SDS011;4127;47.908;10.850;2023-06-04T18:45:06;4.13;;;3.17;;
8171;SDS011;4127;47.908;10.850;2023-06-04T18:47:36;3.93;;;3.27;;
8171;SDS011;4127;47.908;10.850;2023-06-04T18:50:03;3.80;;;3.50;;
8171;SDS011;4127;47.908;10.850;2023-06-04T18:52:30;3.90;;;3.60;;
8171;SDS011;4127;47.908;10.850;2023-06-04T18:54:59;5.03;;;3.57;;
8171;SDS011;4127;47.908;10.850;2023-06-04T18:57:27;4.37;;;3.80;;
8171;SDS011;4127;47.908;10.850;2023-06-04T18:59:54;3.80;;;3.13;;
8171;SDS011;4127;47.908;10.850;2023-06-04T19:02:20;5.43;;;3.83;;
8171;SDS011;4127;47.908;10.850;2023-06-04T19:04:47;3.63;;;3.30;;
8171;SDS011;4127;47.908;10.850;2023-06-04T19:07:14;4.03;;;3.60;;
8171;SDS011;4127;47.908;10.850;2023-06-04T19:09:41;3.60;;;3.30;;
8171;SDS011;4127;47.908;10.850;2023-06-04T19:12:08;3.83;;;3.40;;
8171;SDS011;4127;47.908;10.850;2023-06-04T19:14:35;5.60;;;3.60;;
8171;SDS011;4127;47.908;10.850;2023-06-04T19:17:03;4.00;;;3.60;;
8171;SDS011;4127;47.908;10.850;2023-06-04T19:19:30;4.10;;;3.70;;
8171;SDS011;4127;47.908;10.850;2023-06-04T19:21:57;5.10;;;3.80;;
8171;SDS011;4127;47.908;10.850;2023-06-04T19:24:24;4.97;;;3.60;;
8171;SDS011;4127;47.908;10.850;2023-06-04T19:26:51;4.87;;;3.70;;
8171;SDS011;4127;47.908;10.850;2023-06-04T19:29:18;5.67;;;3.63;;
8171;SDS011;4127;47.908;10.850;2023-06-04T19:31:45;3.97;;;3.40;;